Time;durP1;ratioP1;P1;durP2;ratioP2;P2;SDS_P1;SDS_P2;PMS_P1;PMS_P2;Temp;Humidity;BMP_temperature;BMP_pressure;BME280_temperature;BME280_humidity;BME280_pressure;Samples;Min_cycle;Max_cycle;Signal;HPM_P1;HPM_P2
2023/12/25 00:02:02;;;;;;;31.52;15.73;;;;;;;19.66;53.69;100483.28;4962410;28;20058;-35
2023/12/25 00:04:29;;;;;;;30.58;15.20;;;;;;;19.64;54.35;100479.91;4970043;28;20039;-35
2023/12/25 00:06:56;;;;;;;30.23;14.93;;;;;;;19.63;54.29;100503.28;4965764;28;20063;-35
2023/12/25 00:09:22;;;;;;;30.55;15.88;;;;;;;19.63;54.11;100510.53;4971305;28;20054;-35
2023/12/25 00:11:49;;;;;;;29.17;16.10;;;;;;;19.62;53.87;100511.53;4963943;28;20047;-35
2023/12/25 00:14:16;;;;;;;35.95;16.55;;;;;;;19.60;54.39;100492.84;4969355;28;20051;-35
2023/12/25 00:16:42;;;;;;;32.58;17.45;;;;;;;19.60;53.43;100500.06;4969362;28;20114;-35
2023/12/25 00:19:09;;;;;;;34.80;17.75;;;;;;;19.57;54.13;100495.88;4966063;28;20483;-35
2023/12/25 00:21:36;;;;;;;31.50;17.90;;;;;;;19.56;53.92;100510.31;4967892;28;20055;-35
2023/12/25 00:24:04;;;;;;;33.00;16.85;;;;;;;19.54;54.24;100501.59;4969131;28;20050;-35
2023/12/25 00:26:31;;;;;;;38.72;18.00;;;;;;;19.52;53.87;100490.16;4967477;28;20055;-35
2023/12/25 00:28:57;;;;;;;32.58;17.35;;;;;;;19.51;54.36;100501.94;4965551;28;20053;-35
2023/12/25 00:31:24;;;;;;;35.30;17.90;;;;;;;19.48;53.58;100523.78;4967362;28;20058;-35
2023/12/25 00:33:50;;;;;;;33.15;17.50;;;;;;;19.46;53.84;100540.09;4964637;28;20422;-35
2023/12/25 00:36:17;;;;;;;32.70;17.13;;;;;;;19.45;53.90;100542.94;4967845;28;20101;-35
2023/12/25 00:38:44;;;;;;;34.33;16.83;;;;;;;19.43;54.38;100543.13;4964334;28;20051;-35
2023/12/25 00:41:10;;;;;;;33.63;17.00;;;;;;;19.41;53.86;100549.66;4964207;28;20346;-35
2023/12/25 00:43:37;;;;;;;30.45;15.55;;;;;;;19.40;53.98;100548.00;4967298;28;20387;-35
2023/12/25 00:46:05;;;;;;;34.13;18.20;;;;;;;19.37;54.65;100538.41;4967609;28;20059;-35
2023/12/25 00:48:31;;;;;;;28.88;16.17;;;;;;;19.35;54.13;100543.13;4969173;28;20074;-35
2023/12/25 00:50:58;;;;;;;33.42;17.13;;;;;;;19.34;54.71;100537.94;4967956;28;20058;-35
2023/12/25 00:53:25;;;;;;;29.35;16.55;;;;;;;19.31;54.46;100535.56;4964380;28;20058;-35
2023/12/25 00:55:51;;;;;;;31.10;15.52;;;;;;;19.31;54.02;100535.56;4965385;28;20051;-35
2023/12/25 00:58:19;;;;;;;29.40;17.00;;;;;;;19.30;54.82;100541.97;4962183;28;20430;-35
2023/12/25 01:00:46;;;;;;;30.42;16.20;;;;;;;19.27;54.04;100531.56;4963261;28;20584;-35
2023/12/25 01:03:13;;;;;;;30.38;15.55;;;;;;;19.24;54.42;100522.81;4963757;28;20097;-35
2023/12/25 01:05:40;;;;;;;33.47;15.82;;;;;;;19.21;55.06;100525.81;4967458;28;20134;-35
2023/12/25 01:08:06;;;;;;;28.58;15.27;;;;;;;19.21;54.33;100520.44;4964454;28;20081;-35
2023/12/25 01:10:33;;;;;;;31.83;15.43;;;;;;;19.19;54.54;100529.69;4968561;28;20146;-35
2023/12/25 01:12:59;;;;;;;31.05;14.65;;;;;;;19.17;54.81;100521.78;4967235;28;20877;-35
2023/12/25 01:15:26;;;;;;;26.48;14.02;;;;;;;19.16;54.25;100530.88;4966450;28;20055;-33
2023/12/25 01:17:52;;;;;;;28.77;15.25;;;;;;;19.13;54.87;100517.75;4969754;28;20167;-34
2023/12/25 01:20:20;;;;;;;22.85;13.65;;;;;;;19.12;55.02;100534.91;4969101;28;20055;-34
2023/12/25 01:22:46;;;;;;;25.85;13.95;;;;;;;19.10;54.57;100531.56;4968583;28;20147;-34
2023/12/25 01:25:13;;;;;;;23.20;12.73;;;;;;;19.10;54.66;100536.94;4965194;28;20062;-34
2023/12/25 01:27:41;;;;;;;24.45;12.27;;;;;;;19.08;54.72;100547.00;4964638;28;20630;-34
2023/12/25 01:30:11;;;;;;;22.75;11.85;;;;;;;19.06;55.00;100543.66;4966697;28;20351;-35
2023/12/25 01:32:37;;;;;;;23.80;12.80;;;;;;;19.05;55.21;100549.16;4966677;28;20638;-34
2023/12/25 01:35:05;;;;;;;21.35;11.63;;;;;;;19.04;54.64;100558.25;4967268;28;20050;-34
2023/12/25 01:37:32;;;;;;;22.90;10.82;;;;;;;19.03;55.03;100552.03;4967242;28;20074;-34
2023/12/25 01:39:58;;;;;;;20.27;11.32;;;;;;;19.01;55.01;100572.84;4961852;28;20047;-35
2023/12/25 01:42:25;;;;;;;21.45;9.63;;;;;;;19.00;55.17;100563.09;4967059;28;20070;-35
2023/12/25 01:44:51;;;;;;;21.40;10.25;;;;;;;18.98;55.25;100565.97;4967941;28;20379;-35
2023/12/25 01:47:19;;;;;;;20.95;10.88;;;;;;;18.97;54.65;100566.13;4965460;28;20058;-35
2023/12/25 01:49:47;;;;;;;19.20;10.25;;;;;;;18.97;55.13;100571.50;4968029;28;20043;-35
2023/12/25 01:52:15;;;;;;;17.77;9.30;;;;;;;18.95;55.21;100568.97;4965946;28;20109;-35
2023/12/25 01:54:43;;;;;;;18.23;10.05;;;;;;;18.93;55.11;100564.78;4967888;28;20342;-35
2023/12/25 01:57:10;;;;;;;19.10;9.63;;;;;;;18.94;55.25;100561.09;4967660;28;20059;-35
2023/12/25 01:59:38;;;;;;;16.35;8.40;;;;;;;18.92;54.97;100571.16;4966141;28;20141;-35
2023/12/25 02:02:04;;;;;;;21.05;8.77;;;;;;;18.88;55.26;100565.28;4966903;28;20061;-35
2023/12/25 02:04:31;;;;;;;19.40;8.55;;;;;;;18.88;54.84;100562.59;4967260;28;20049;-35
2023/12/25 02:06:59;;;;;;;18.58;8.90;;;;;;;18.87;55.01;100566.28;4967980;28;20086;-35
2023/12/25 02:09:27;;;;;;;17.77;8.30;;;;;;;18.86;55.17;100561.94;4967698;28;20054;-35
2023/12/25 02:11:54;;;;;;;17.77;8.10;;;;;;;18.86;55.74;100574.53;4964086;28;20359;-35
2023/12/25 02:14:21;;;;;;;15.40;8.00;;;;;;;18.84;55.24;100566.63;4963584;28;20090;-35
2023/12/25 02:16:48;;;;;;;17.45;8.68;;;;;;;18.84;54.87;100574.66;4970535;28;20386;-35
2023/12/25 02:19:49;;;;;;;17.13;8.05;;;;;;;18.83;55.35;100572.16;4971452;28;20105;-35
2023/12/25 02:22:16;;;;;;;15.57;6.85;;;;;;;18.82;55.24;100581.22;4965150;28;20433;-35
2023/12/25 02:25:01;;;;;;;15.45;6.63;;;;;;;18.79;55.64;100585.06;4970573;28;20046;-35
2023/12/25 02:27:28;;;;;;;12.73;7.05;;;;;;;18.80;55.12;100585.91;4972108;28;20157;-35
2023/12/25 02:29:55;;;;;;;15.90;6.97;;;;;;;18.78;55.63;100574.50;4969210;28;20465;-35
2023/12/25 02:32:21;;;;;;;13.63;6.22;;;;;;;18.78;55.51;100564.59;4968329;28;20046;-35
2023/12/25 02:34:48;;;;;;;13.40;6.65;;;;;;;18.76;55.49;100582.72;4968679;28;20047;-35
2023/12/25 02:37:15;;;;;;;12.57;6.50;;;;;;;18.76;55.51;100584.56;4971758;28;20342;-35
2023/12/25 02:39:41;;;;;;;12.02;5.97;;;;;;;18.74;55.33;100592.78;4968880;28;20051;-35
2023/12/25 02:42:08;;;;;;;14.55;6.35;;;;;;;18.74;55.62;100582.88;4967255;28;20149;-35
2023/12/25 02:44:34;;;;;;;12.60;6.10;;;;;;;18.73;55.24;100580.34;4969838;28;20149;-35
2023/12/25 02:47:01;;;;;;;13.70;5.63;;;;;;;18.72;55.27;100576.00;4971581;28;20453;-35
2023/12/25 02:49:28;;;;;;;10.55;5.38;;;;;;;18.72;55.43;100566.09;4970755;28;20063;-35
2023/12/25 02:51:54;;;;;;;11.50;5.43;;;;;;;18.71;55.62;100582.38;4970553;28;20440;-35
2023/12/25 02:54:21;;;;;;;12.13;5.68;;;;;;;18.70;55.79;100578.84;4969402;28;20383;-35
2023/12/25 02:56:47;;;;;;;13.38;5.60;;;;;;;18.69;55.52;100587.88;4970829;28;20055;-35
2023/12/25 02:59:14;;;;;;;11.18;5.15;;;;;;;18.69;55.55;100584.34;4969267;28;20142;-35
2023/12/25 03:01:41;;;;;;;8.48;4.40;;;;;;;18.68;55.43;100572.75;4969975;28;20055;-35
2023/12/25 03:04:07;;;;;;;9.02;4.30;;;;;;;18.67;56.07;100583.66;4971082;28;20125;-35
2023/12/25 03:06:34;;;;;;;10.15;4.60;;;;;;;18.67;55.48;100597.94;4968172;28;20501;-35
2023/12/25 03:09:01;;;;;;;14.65;5.53;;;;;;;18.67;55.58;100602.47;4965900;28;20130;-35
2023/12/25 03:11:28;;;;;;;10.48;4.95;;;;;;;18.66;55.17;100608.84;4964949;28;20051;-35
2023/12/25 03:13:54;;;;;;;12.18;5.07;;;;;;;18.65;55.50;100618.75;4967925;28;20050;-35
2023/12/25 03:16:21;;;;;;;7.65;3.78;;;;;;;18.64;55.78;100611.66;4965076;28;20169;-35
2023/12/25 03:18:47;;;;;;;11.70;4.70;;;;;;;18.64;55.98;100610.84;4966487;28;20136;-35
2023/12/25 03:21:15;;;;;;;8.98;4.43;;;;;;;18.63;55.57;100603.78;4970771;28;20074;-35
2023/12/25 03:23:41;;;;;;;9.85;4.20;;;;;;;18.63;55.38;100604.63;4967952;28;20051;-35
2023/12/25 03:26:08;;;;;;;8.52;3.50;;;;;;;18.62;55.56;100599.44;4968819;28;20046;-35
2023/12/25 03:28:34;;;;;;;8.88;3.63;;;;;;;18.62;55.98;100605.63;4969392;28;20050;-35
2023/12/25 03:31:01;;;;;;;9.15;4.00;;;;;;;18.61;55.80;100603.94;4969677;28;20546;-35
2023/12/25 03:33:28;;;;;;;7.68;3.55;;;;;;;18.59;56.00;100614.00;4970917;28;20047;-35
2023/12/25 03:35:54;;;;;;;8.20;3.33;;;;;;;18.60;55.58;100609.47;4967434;28;20050;-35
2023/12/25 03:38:21;;;;;;;11.15;3.80;;;;;;;18.58;55.46;100617.72;4967583;28;20066;-35
2023/12/25 03:40:48;;;;;;;9.90;3.45;;;;;;;18.58;55.62;100617.72;4966470;28;20055;-35
2023/12/25 03:43:14;;;;;;;6.88;3.13;;;;;;;18.58;55.78;100606.97;4969053;28;20089;-35
2023/12/25 03:45:41;;;;;;;7.43;3.42;;;;;;;18.59;55.60;100613.19;4963655;28;20102;-35
2023/12/25 03:48:07;;;;;;;6.93;2.95;;;;;;;18.57;55.59;100607.13;4967757;28;20117;-35
2023/12/25 03:50:34;;;;;;;10.30;3.33;;;;;;;18.57;55.82;100617.84;4967965;28;20146;-35
2023/12/25 03:53:01;;;;;;;8.52;2.80;;;;;;;18.56;55.70;100621.53;4967663;28;20100;-35
2023/12/25 03:55:28;;;;;;;8.18;3.78;;;;;;;18.56;55.70;100624.22;4968213;28;20121;-35
2023/12/25 03:57:54;;;;;;;9.98;3.35;;;;;;;18.55;56.02;100615.34;4967624;28;20046;-35
2023/12/25 04:00:21;;;;;;;6.53;3.20;;;;;;;18.55;55.63;100606.47;4970342;28;20117;-35
2023/12/25 04:02:48;;;;;;;8.23;2.95;;;;;;;18.53;55.92;100625.38;4969236;28;20405;-35
2023/12/25 04:05:15;;;;;;;9.10;3.00;;;;;;;18.53;55.63;100633.44;4969021;28;20050;-35
2023/12/25 04:07:41;;;;;;;5.90;3.00;;;;;;;18.53;55.69;100625.38;4967389;28;20062;-35
2023/12/25 04:10:08;;;;;;;6.28;2.65;;;;;;;18.53;56.01;100624.56;4965474;28;20097;-35
2023/12/25 04:12:35;;;;;;;7.88;2.83;;;;;;;18.53;55.81;100614.66;4967033;28;20121;-35
2023/12/25 04:15:03;;;;;;;9.10;2.88;;;;;;;18.52;55.85;100631.75;4967485;28;20055;-35
2023/12/25 04:17:29;;;;;;;10.10;2.70;;;;;;;18.51;55.82;100619.34;4971449;28;20371;-35
2023/12/25 04:19:56;;;;;;;6.47;3.15;;;;;;;18.50;55.89;100617.69;4964615;28;20058;-35
2023/12/25 04:22:23;;;;;;;7.22;2.58;;;;;;;18.50;55.92;100605.09;4969661;28;20050;-35
2023/12/25 04:24:49;;;;;;;6.68;2.90;;;;;;;18.50;55.62;100613.16;4965835;28;20534;-35
2023/12/25 04:27:16;;;;;;;6.38;2.35;;;;;;;18.50;55.89;100601.56;4968407;28;20394;-35
2023/12/25 04:29:42;;;;;;;8.27;3.10;;;;;;;18.49;55.75;100610.59;4968552;28;20055;-35
2023/12/25 04:32:09;;;;;;;6.15;2.60;;;;;;;18.49;55.86;100618.66;4969133;28;20058;-35
2023/12/25 04:34:36;;;;;;;5.90;2.22;;;;;;;18.48;55.84;100627.72;4967547;28;20134;-35
2023/12/25 04:37:03;;;;;;;8.85;3.40;;;;;;;18.47;56.03;100620.69;4967952;28;20059;-35
2023/12/25 04:39:30;;;;;;;8.27;2.90;;;;;;;18.46;56.00;100617.16;4964085;28;20098;-35
2023/12/25 04:41:56;;;;;;;5.65;2.25;;;;;;;18.47;55.86;100616.16;4965970;28;20059;-35
2023/12/25 04:44:23;;;;;;;5.80;2.42;;;;;;;18.46;55.81;100622.53;4964362;28;20054;-35
2023/12/25 04:46:49;;;;;;;6.75;2.72;;;;;;;18.45;55.92;100628.03;4970431;28;20058;-35
2023/12/25 04:49:16;;;;;;;7.70;2.72;;;;;;;18.45;56.01;100611.94;4968118;28;20406;-35
2023/12/25 04:51:43;;;;;;;8.05;2.50;;;;;;;18.45;55.99;100615.50;4964907;28;20047;-35
2023/12/25 04:54:09;;;;;;;5.10;2.10;;;;;;;18.45;55.69;100611.94;4966488;28;20056;-35
2023/12/25 04:56:36;;;;;;;6.30;2.55;;;;;;;18.44;55.94;100621.00;4967589;28;20137;-36
2023/12/25 04:59:02;;;;;;;6.93;1.92;;;;;;;18.43;55.99;100633.59;4967721;28;20050;-35
2023/12/25 05:01:29;;;;;;;6.47;2.10;;;;;;;18.43;55.86;100624.69;4965401;28;20046;-35
2023/12/25 05:03:56;;;;;;;5.38;1.98;;;;;;;18.43;55.68;100613.97;4968123;28;20137;-35
2023/12/25 05:06:23;;;;;;;5.25;1.90;;;;;;;18.43;56.09;100616.63;4965206;28;20129;-35
2023/12/25 05:08:49;;;;;;;5.47;2.45;;;;;;;18.42;56.29;100623.84;4963156;28;20047;-35
2023/12/25 05:11:16;;;;;;;7.35;1.83;;;;;;;18.42;56.20;100620.34;4965595;28;20050;-35
2023/12/25 05:13:43;;;;;;;7.32;2.10;;;;;;;18.42;56.09;100631.06;4968275;28;20342;-35
2023/12/25 05:16:09;;;;;;;5.50;2.10;;;;;;;18.41;56.33;100622.19;4968455;28;20063;-35
2023/12/25 05:18:36;;;;;;;6.38;2.33;;;;;;;18.41;55.95;100613.25;4967831;28;20564;-35
2023/12/25 05:21:07;;;;;;;6.65;2.30;;;;;;;18.40;55.89;100604.38;4964363;28;20054;-35
2023/12/25 05:23:34;;;;;;;5.38;2.08;;;;;;;18.40;55.84;100607.06;4966141;28;20050;-35
2023/12/25 05:26:00;;;;;;;4.03;1.88;;;;;;;18.40;55.82;100625.00;4965771;28;20047;-35
2023/12/25 05:28:27;;;;;;;6.13;1.85;;;;;;;18.41;55.81;100632.03;4961581;28;20082;-35
2023/12/25 05:30:53;;;;;;;5.97;1.83;;;;;;;18.40;55.93;100643.78;4967854;28;20082;-35
2023/12/25 05:33:20;;;;;;;6.30;1.77;;;;;;;18.40;56.27;100646.47;4965483;28;20153;-35
2023/12/25 05:35:47;;;;;;;4.50;2.33;;;;;;;18.38;55.94;100635.91;4966711;28;20117;-35
2023/12/25 05:38:14;;;;;;;5.38;2.00;;;;;;;18.38;56.07;100641.28;4971266;28;20047;-35
2023/12/25 05:40:41;;;;;;;4.70;1.92;;;;;;;18.38;56.24;100633.22;4965973;28;20054;-35
2023/12/25 05:43:10;;;;;;;5.38;1.98;;;;;;;18.38;56.22;100625.19;4965064;28;20046;-35
2023/12/25 05:45:38;;;;;;;5.90;2.05;;;;;;;18.37;55.81;100628.00;4967965;28;20053;-35
2023/12/25 05:48:05;;;;;;;5.90;2.30;;;;;;;18.36;56.40;100624.47;4969582;28;20058;-35
2023/12/25 05:50:32;;;;;;;5.72;1.70;;;;;;;18.36;55.96;100637.91;4964739;28;20057;-35
2023/12/25 05:52:59;;;;;;;4.38;1.50;;;;;;;18.36;55.87;100640.59;4970339;28;20055;-35
2023/12/25 05:55:26;;;;;;;5.95;1.90;;;;;;;18.36;56.20;100629.00;4962010;28;20046;-35
2023/12/25 05:57:52;;;;;;;5.63;1.90;;;;;;;18.35;56.12;100624.66;4963401;28;20110;-35
2023/12/25 06:00:19;;;;;;;7.28;2.20;;;;;;;18.36;55.54;100639.75;4967624;28;20350;-35
2023/12/25 06:02:46;;;;;;;6.97;2.13;;;;;;;18.34;56.31;100637.25;4966005;28;20055;-35
2023/12/25 06:05:13;;;;;;;5.80;2.00;;;;;;;18.35;55.79;100638.91;4968972;28;20051;-35
2023/12/25 06:07:39;;;;;;;5.45;1.88;;;;;;;18.35;55.95;100648.81;4966422;28;20047;-35
2023/12/25 06:10:07;;;;;;;4.18;1.83;;;;;;;18.34;55.99;100644.44;4966708;28;20430;-35
2023/12/25 06:12:33;;;;;;;5.20;2.05;;;;;;;18.33;55.92;100645.44;4963441;28;20054;-35
2023/12/25 06:15:03;;;;;;;5.88;2.00;;;;;;;18.33;56.28;100638.25;4959983;28;20051;-34
2023/12/25 06:17:30;;;;;;;3.55;1.58;;;;;;;18.33;55.95;100650.78;4960877;28;20066;-34
2023/12/25 06:19:56;;;;;;;6.43;1.73;;;;;;;18.33;56.15;100640.94;4966842;28;20470;-34
2023/12/25 06:22:23;;;;;;;5.50;1.75;;;;;;;18.33;56.24;100640.06;4968874;28;20578;-34
2023/12/25 06:24:49;;;;;;;5.57;1.50;;;;;;;18.31;56.26;100636.72;4966059;28;20435;-34
2023/12/25 06:27:16;;;;;;;5.47;1.70;;;;;;;18.31;56.37;100645.59;4964392;28;20236;-34
2023/12/25 06:29:43;;;;;;;5.50;2.58;;;;;;;18.31;56.18;100650.13;4964062;28;20315;-34
2023/12/25 06:32:09;;;;;;;4.28;1.60;;;;;;;18.30;56.41;100645.78;4965857;28;20055;-34
2023/12/25 06:34:36;;;;;;;5.50;1.95;;;;;;;18.29;56.27;100644.06;4967889;28;20058;-34
2023/12/25 06:37:03;;;;;;;4.28;1.40;;;;;;;18.29;56.25;100649.44;4964555;28;20119;-34
2023/12/25 06:39:29;;;;;;;4.43;1.45;;;;;;;18.28;55.84;100645.91;4965686;28;20430;-34
2023/12/25 06:41:56;;;;;;;3.85;1.35;;;;;;;18.28;55.87;100651.28;4964336;28;20088;-34
2023/12/25 06:44:23;;;;;;;2.95;1.42;;;;;;;18.27;56.48;100656.81;4964163;28;20046;-34
2023/12/25 06:46:49;;;;;;;4.82;1.83;;;;;;;18.27;56.13;100652.28;4968925;28;20047;-34
2023/12/25 06:49:17;;;;;;;4.70;1.38;;;;;;;18.25;56.51;100647.09;4963820;28;20141;-34
2023/12/25 06:51:45;;;;;;;2.72;1.35;;;;;;;18.25;56.28;100654.28;4967185;28;20445;-34
2023/12/25 06:54:12;;;;;;;4.03;1.13;;;;;;;18.25;56.14;100659.63;4962282;28;20346;-34
2023/12/25 06:56:38;;;;;;;3.45;1.52;;;;;;;18.23;56.41;100664.34;4964835;28;20106;-34
2023/12/25 06:59:05;;;;;;;5.38;2.13;;;;;;;18.23;56.32;100665.19;4962144;28;20055;-34
2023/12/25 07:01:32;;;;;;;6.75;1.75;;;;;;;18.23;55.89;100667.84;4965610;28;20113;-35
2023/12/25 07:03:58;;;;;;;3.03;1.40;;;;;;;18.25;56.15;100675.75;4952914;28;20429;-35
2023/12/25 07:06:25;;;;;;;5.72;1.25;;;;;;;18.28;56.01;100680.78;4962521;28;20043;-35
2023/12/25 07:08:52;;;;;;;7.78;2.70;;;;;;;18.29;56.06;100679.81;4959151;28;20054;-35
2023/12/25 07:11:19;;;;;;;3.50;1.20;;;;;;;18.30;56.24;100673.44;4963434;28;20090;-35
2023/12/25 07:13:46;;;;;;;7.38;1.52;;;;;;;18.32;56.31;100675.94;4963890;28;20062;-35
2023/12/25 07:16:21;;;;;;;5.97;1.55;;;;;;;18.31;56.34;100680.47;4964485;28;20058;-35
2023/12/25 07:18:52;;;;;;;3.80;1.60;;;;;;;18.33;56.15;100683.00;4964073;28;20055;-35
2023/12/25 07:21:19;;;;;;;6.40;2.17;;;;;;;18.34;56.34;100682.00;4930508;28;20063;-35
2023/12/25 07:23:46;;;;;;;6.25;2.42;;;;;;;18.36;56.20;100685.38;4957237;28;20046;-35
2023/12/25 07:26:16;;;;;;;6.90;2.58;;;;;;;18.37;55.99;100690.59;4963023;28;20057;-35
2023/12/25 07:28:42;;;;;;;5.65;2.95;;;;;;;18.39;56.36;100693.09;4962963;28;20134;-35
2023/12/25 07:31:09;;;;;;;6.43;3.45;;;;;;;18.39;56.34;100679.69;4962784;28;20145;-35
2023/12/25 07:33:36;;;;;;;6.40;3.40;;;;;;;18.39;56.11;100677.00;4958973;28;20117;-35
2023/12/25 07:36:04;;;;;;;7.75;3.83;;;;;;;18.40;56.20;100684.03;4955534;28;20082;-35
2023/12/25 07:38:30;;;;;;;6.60;3.75;;;;;;;18.41;55.92;100691.94;4961280;28;20964;-36
2023/12/25 07:40:57;;;;;;;8.32;4.18;;;;;;;18.42;55.96;100692.78;4926656;28;20054;-36
2023/12/25 07:43:24;;;;;;;8.63;4.25;;;;;;;18.43;56.14;100700.66;4958238;28;20065;-35
2023/12/25 07:45:51;;;;;;;6.40;4.13;;;;;;;18.44;56.30;100690.78;4960941;28;20129;-35
2023/12/25 07:48:17;;;;;;;8.75;3.60;;;;;;;18.44;56.14;100698.81;4963798;28;20386;-35
2023/12/25 07:50:44;;;;;;;5.50;2.90;;;;;;;18.44;56.21;100702.34;4961035;28;20125;-35
2023/12/25 07:53:11;;;;;;;6.38;3.42;;;;;;;18.44;56.02;100710.41;4963774;28;20054;-35
2023/12/25 07:55:40;;;;;;;9.18;3.85;;;;;;;18.45;55.91;100719.28;4963640;28;20467;-35
2023/12/25 07:58:06;;;;;;;7.80;3.85;;;;;;;18.45;55.62;100713.91;4961704;28;20145;-35
2023/12/25 08:00:33;;;;;;;7.18;3.63;;;;;;;18.46;55.91;100721.00;4960665;28;20082;-35
2023/12/25 08:02:59;;;;;;;7.63;4.07;;;;;;;18.45;55.69;100708.53;4925690;28;20292;-35
2023/12/25 08:05:26;;;;;;;6.65;4.10;;;;;;;18.45;55.88;100725.53;4962325;28;20046;-35
2023/12/25 08:07:53;;;;;;;7.25;4.35;;;;;;;18.46;55.97;100721.81;4960947;28;20050;-35
2023/12/25 08:10:20;;;;;;;8.45;4.03;;;;;;;18.47;55.66;100719.97;4957828;28;20047;-35
2023/12/25 08:12:46;;;;;;;9.57;5.32;;;;;;;18.48;55.88;100735.06;4952213;28;20073;-35
2023/12/25 08:15:15;;;;;;;8.68;4.82;;;;;;;18.48;55.54;100733.22;4952340;28;20133;-35
2023/12/25 08:17:42;;;;;;;10.27;6.22;;;;;;;18.48;55.40;100724.34;4959395;28;20113;-35
2023/12/25 08:20:10;;;;;;;16.85;9.65;;;;;;;18.49;55.55;100728.69;4959252;28;20620;-35
2023/12/25 08:22:36;;;;;;;22.15;13.15;;;;;;;18.51;55.73;100734.75;4922090;28;20082;-35
2023/12/25 08:25:03;;;;;;;28.10;15.50;;;;;;;18.52;55.80;100735.59;4959911;28;20126;-35
2023/12/25 08:27:30;;;;;;;31.73;18.13;;;;;;;18.53;55.80;100738.13;4960680;28;20133;-36
2023/12/25 08:29:56;;;;;;;38.22;20.73;;;;;;;18.54;56.25;100739.81;4960940;28;20058;-35
2023/12/25 08:32:23;;;;;;;39.42;22.98;;;;;;;18.55;55.71;100754.06;4961496;28;20051;-34
2023/12/25 08:34:50;;;;;;;40.35;23.45;;;;;;;18.55;55.86;100741.50;4962857;28;20117;-35
2023/12/25 08:37:16;;;;;;;44.90;25.50;;;;;;;18.55;55.79;100744.19;4960819;28;20042;-34
2023/12/25 08:39:43;;;;;;;44.72;25.60;;;;;;;18.57;56.31;100741.31;4958669;28;20130;-35
2023/12/25 08:42:09;;;;;;;42.75;24.25;;;;;;;18.56;56.15;100743.16;4926550;28;20066;-35
2023/12/25 08:44:36;;;;;;;41.20;23.90;;;;;;;18.57;56.17;100744.84;4964025;28;20476;-35
2023/12/25 08:47:03;;;;;;;40.33;24.15;;;;;;;18.57;56.11;100739.47;4961078;28;20500;-35
2023/12/25 08:49:30;;;;;;;37.65;23.25;;;;;;;18.58;56.45;100740.34;4960556;28;20054;-35
2023/12/25 08:51:57;;;;;;;40.53;23.95;;;;;;;18.58;55.67;100743.88;4961617;28;20109;-35
2023/12/25 08:54:24;;;;;;;42.67;24.88;;;;;;;18.58;56.14;100738.50;4962946;28;20054;-35
2023/12/25 08:56:51;;;;;;;41.25;24.50;;;;;;;18.58;55.82;100738.50;4958988;28;20488;-33
2023/12/25 08:59:17;;;;;;;43.70;25.98;;;;;;;18.58;56.30;100741.19;4960803;28;20133;-34
2023/12/25 09:01:44;;;;;;;44.95;25.13;;;;;;;18.59;55.96;100739.34;4926918;28;20070;-34
2023/12/25 09:04:12;;;;;;;50.10;28.00;;;;;;;18.59;56.11;100755.44;4953228;28;20462;-33
2023/12/25 09:06:41;;;;;;;47.28;28.33;;;;;;;18.60;56.11;100754.44;4955443;28;20054;-34
2023/12/25 09:09:09;;;;;;;51.70;27.92;;;;;;;18.59;56.54;100747.38;4952801;28;20175;-34
2023/12/25 09:11:36;;;;;;;51.13;29.92;;;;;;;18.61;56.41;100769.53;4958665;28;20050;-34
2023/12/25 09:14:03;;;;;;;51.15;29.67;;;;;;;18.62;56.27;100768.56;4960107;28;20156;-34
2023/12/25 09:16:30;;;;;;;49.80;29.65;;;;;;;18.62;56.21;100773.91;4959495;28;20385;-34
2023/12/25 09:18:57;;;;;;;53.17;30.42;;;;;;;18.64;56.35;100779.97;4960752;28;20153;-33
2023/12/25 09:21:23;;;;;;;47.92;29.40;;;;;;;18.63;56.33;100781.81;4924595;28;20620;-35
2023/12/25 09:23:50;;;;;;;45.42;26.70;;;;;;;18.65;56.09;100790.56;4957626;28;20098;-35
2023/12/25 09:26:19;;;;;;;46.22;27.27;;;;;;;18.65;56.46;100790.56;4958790;28;20051;-35
2023/12/25 09:28:46;;;;;;;43.67;26.92;;;;;;;18.67;56.37;100806.50;4960088;28;20113;-33
2023/12/25 09:31:13;;;;;;;44.20;26.48;;;;;;;18.66;56.49;100800.28;4961983;28;20053;-34
2023/12/25 09:33:40;;;;;;;45.25;26.50;;;;;;;18.66;56.67;100792.22;4960685;28;20054;-34
2023/12/25 09:36:07;;;;;;;43.40;25.67;;;;;;;18.67;56.32;100788.53;4959200;28;20121;-34
2023/12/25 09:38:34;;;;;;;47.42;26.90;;;;;;;18.67;56.53;100785.84;4961366;28;20057;-34
2023/12/25 09:41:00;;;;;;;48.53;27.35;;;;;;;18.67;56.42;100775.13;4959360;28;20058;-34
2023/12/25 09:43:27;;;;;;;43.22;26.00;;;;;;;18.67;56.65;100777.81;4923978;28;20058;-34
2023/12/25 09:45:55;;;;;;;48.10;26.65;;;;;;;18.67;56.64;100772.44;4958540;28;20046;-34
2023/12/25 09:48:22;;;;;;;43.08;25.77;;;;;;;18.67;56.54;100783.16;4961502;28;20046;-34
2023/12/25 09:50:49;;;;;;;48.58;26.17;;;;;;;18.68;56.55;100784.84;4960416;28;20154;-33
2023/12/25 09:53:16;;;;;;;47.85;27.05;;;;;;;18.70;56.68;100782.88;4955850;28;20157;-34
2023/12/25 09:55:44;;;;;;;45.67;26.50;;;;;;;18.72;56.75;100788.09;4960180;28;20250;-34
2023/12/25 09:58:12;;;;;;;45.30;26.08;;;;;;;18.72;56.71;100794.28;4960457;28;20201;-34
2023/12/25 10:00:39;;;;;;;45.35;25.42;;;;;;;18.74;56.76;100803.06;4961691;28;20457;-34
2023/12/25 10:03:06;;;;;;;42.00;25.52;;;;;;;18.76;56.81;100793.97;4922980;28;20494;-34
2023/12/25 10:05:33;;;;;;;48.10;25.05;;;;;;;18.75;56.79;100809.25;4959503;28;20054;-35
2023/12/25 10:08:00;;;;;;;45.08;27.23;;;;;;;18.77;56.61;100803.72;4957109;28;20109;-36
2023/12/25 10:10:31;;;;;;;49.95;28.13;;;;;;;18.78;56.88;100800.06;4961887;28;20777;-34
2023/12/25 10:13:00;;;;;;;48.90;28.35;;;;;;;18.80;56.85;100811.47;4960123;28;20401;-34
2023/12/25 10:15:27;;;;;;;62.58;29.15;;;;;;;18.80;56.81;100814.97;4959935;28;20082;-34
2023/12/25 10:18:22;;;;;;;51.70;28.90;;;;;;;18.79;56.67;100812.47;4960279;28;20501;-35
2023/12/25 10:20:57;;;;;;;52.63;28.92;;;;;;;18.80;57.08;100787.28;4958779;28;20398;-35
2023/12/25 10:23:31;;;;;;;44.70;26.08;;;;;;;18.78;56.45;100784.78;4908161;28;20125;-35
2023/12/25 10:25:59;;;;;;;;;;;;;;;18.76;56.11;100802.03;4957880;28;20137;-35
2023/12/25 10:28:26;;;;;;;50.58;30.00;;;;;;;18.77;56.82;100796.50;4957660;28;20268;-35
2023/12/25 10:31:07;;;;;;;50.30;30.38;;;;;;;18.71;56.66;100810.56;4956637;28;20058;-35
2023/12/25 10:33:35;;;;;;;54.50;31.83;;;;;;;18.69;56.71;100817.91;4951093;28;20354;-35
2023/12/25 10:36:10;;;;;;;56.80;30.45;;;;;;;18.68;57.02;100808.16;4951158;28;20047;-34
2023/12/25 10:38:39;;;;;;;54.95;31.30;;;;;;;18.70;56.61;100803.53;4958616;28;20145;-35
2023/12/25 10:41:31;;;;;;;61.35;32.42;;;;;;;18.71;56.35;100795.31;4959896;28;20047;-35
2023/12/25 10:44:00;;;;;;;54.63;31.30;;;;;;;18.76;56.83;100796.66;4922017;28;20432;-35
2023/12/25 10:46:37;;;;;;;56.22;32.88;;;;;;;18.78;56.88;100800.88;4960441;28;20148;-35
2023/12/25 10:49:05;;;;;;;59.17;32.95;;;;;;;18.82;57.10;100798.72;4962800;28;20055;-36
2023/12/25 10:51:49;;;;;;;54.08;33.13;;;;;;;18.83;56.45;100806.63;4961771;28;20054;-36
2023/12/25 10:54:16;;;;;;;57.17;33.92;;;;;;;18.85;56.65;100788.47;4960231;28;20059;-35
2023/12/25 10:56:44;;;;;;;55.35;33.55;;;;;;;18.88;56.40;100806.13;4960559;28;20087;-36
2023/12/25 10:59:27;;;;;;;59.10;33.92;;;;;;;18.88;56.53;100800.75;4964421;28;20050;-35
2023/12/25 11:01:55;;;;;;;55.08;33.08;;;;;;;18.90;56.28;100799.59;4961317;28;20054;-35
2023/12/25 11:04:24;;;;;;;56.10;34.00;;;;;;;18.91;56.23;100803.97;4964741;28;20059;-35
2023/12/25 11:06:52;;;;;;;60.15;33.95;;;;;;;18.92;56.18;100802.13;4958576;28;20520;-36
2023/12/25 11:09:20;;;;;;;53.75;33.78;;;;;;;18.93;56.37;100804.63;4964433;28;20498;-35
2023/12/25 11:11:47;;;;;;;54.83;33.05;;;;;;;18.96;55.99;100803.47;4963451;28;20067;-34
2023/12/25 11:14:14;;;;;;;58.85;32.03;;;;;;;18.99;56.65;100804.00;4961773;28;20070;-34
2023/12/25 11:16:41;;;;;;;49.70;29.13;;;;;;;18.99;56.57;100813.91;4961381;28;20450;-34
2023/12/25 11:19:08;;;;;;;52.35;29.75;;;;;;;19.01;57.11;100819.13;4962885;28;20055;-34